createdAt,value
2023-04-30T00:01:18.607Z,5.33
2023-04-30T00:03:53.116Z,4.83
2023-04-30T00:06:28.329Z,5.67
2023-04-30T00:09:03.683Z,5.00
2023-04-30T00:11:38.150Z,5.47
2023-04-30T00:14:13.445Z,5.03
2023-04-30T00:16:47.522Z,5.73
2023-04-30T00:19:21.879Z,5.70
2023-04-30T00:21:56.015Z,5.17
2023-04-30T00:24:29.775Z,4.27
2023-04-30T00:27:04.013Z,6.13
2023-04-30T00:29:39.973Z,5.57
2023-04-30T00:32:14.591Z,4.43
2023-04-30T00:34:48.498Z,5.13
2023-04-30T00:37:22.637Z,4.77
2023-04-30T00:39:56.497Z,4.43
2023-04-30T00:42:30.848Z,5.90
2023-04-30T00:45:08.534Z,4.60
2023-04-30T00:47:43.797Z,6.60
2023-04-30T00:50:18.219Z,4.67
2023-04-30T00:52:52.527Z,5.57
2023-04-30T00:55:26.502Z,4.20
2023-04-30T00:58:01.592Z,6.57
2023-04-30T01:00:37.531Z,4.83
2023-04-30T01:03:12.228Z,5.07
2023-04-30T01:05:49.535Z,4.47
2023-04-30T01:08:27.866Z,4.37
2023-04-30T01:11:17.613Z,4.80
2023-04-30T01:14:08.362Z,4.47
2023-04-30T01:16:52.768Z,6.67
2023-04-30T01:19:39.587Z,5.40
2023-04-30T01:22:33.756Z,4.70
2023-04-30T01:25:37.078Z,4.13
2023-04-30T01:28:17.517Z,3.93
2023-04-30T01:30:53.334Z,4.47
2023-04-30T01:33:27.366Z,3.97
2023-04-30T01:36:26.585Z,5.50
2023-04-30T01:39:37.357Z,4.70
2023-04-30T01:42:23.759Z,4.40
2023-04-30T01:45:20.724Z,4.47
2023-04-30T01:48:03.466Z,4.50
2023-04-30T01:50:49.132Z,4.20
2023-04-30T01:53:40.958Z,4.73
2023-04-30T01:56:27.364Z,5.83
2023-04-30T01:59:02.598Z,5.07
2023-04-30T02:01:39.884Z,4.30
2023-04-30T02:04:14.181Z,4.80
2023-04-30T02:06:49.342Z,6.40
2023-04-30T02:09:26.131Z,6.07
2023-04-30T02:12:00.025Z,5.63
2023-04-30T02:14:34.431Z,5.37
2023-04-30T02:17:09.961Z,4.83
2023-04-30T02:19:44.703Z,4.90
2023-04-30T02:22:21.328Z,5.70
2023-04-30T02:24:56.203Z,4.93
2023-04-30T02:27:34.090Z,4.37
2023-04-30T02:30:09.777Z,5.00
2023-04-30T02:32:45.065Z,4.57
2023-04-30T02:35:19.768Z,5.23
2023-04-30T02:37:53.522Z,4.83
2023-04-30T02:40:29.709Z,5.57
2023-04-30T02:43:04.196Z,4.90
2023-04-30T02:45:38.662Z,5.23
2023-04-30T02:48:14.959Z,4.90
2023-04-30T02:50:48.829Z,5.83
2023-04-30T02:53:22.725Z,5.87
2023-04-30T02:55:56.709Z,5.60
2023-04-30T02:58:30.939Z,4.80
2023-04-30T03:01:09.349Z,5.23
2023-04-30T03:03:44.640Z,4.63
2023-04-30T03:06:18.903Z,4.80
2023-04-30T03:08:53.359Z,5.00
2023-04-30T03:11:27.446Z,6.20
2023-04-30T03:14:01.741Z,5.17
2023-04-30T03:16:35.830Z,5.97
2023-04-30T03:19:12.098Z,5.07
2023-04-30T03:21:46.927Z,5.30
2023-04-30T03:24:21.605Z,5.77
2023-04-30T03:26:55.758Z,5.20
2023-04-30T03:29:29.602Z,6.13
2023-04-30T03:32:03.494Z,4.73
2023-04-30T03:34:40.178Z,6.13
2023-04-30T03:37:13.908Z,7.63
2023-04-30T03:39:47.917Z,6.73
2023-04-30T03:42:23.277Z,5.97
2023-04-30T03:44:57.040Z,5.67
2023-04-30T03:47:31.205Z,5.10
2023-04-30T03:50:07.923Z,5.97
2023-04-30T03:52:44.395Z,4.73
2023-04-30T03:55:20.222Z,5.23
2023-04-30T03:57:54.765Z,5.43
2023-04-30T04:00:29.038Z,5.63
2023-04-30T04:03:02.952Z,5.93
2023-04-30T04:05:39.391Z,6.53
2023-04-30T04:08:14.596Z,6.13
2023-04-30T04:10:49.746Z,6.33
2023-04-30T04:13:24.992Z,5.73
2023-04-30T04:16:00.914Z,6.20
2023-04-30T04:18:35.089Z,5.53
2023-04-30T04:21:13.160Z,5.87
2023-04-30T04:23:47.386Z,6.17
2023-04-30T04:26:25.856Z,7.30
2023-04-30T04:28:59.603Z,6.10
2023-04-30T04:31:34.202Z,6.47
2023-04-30T04:34:08.626Z,6.77
2023-04-30T04:36:44.232Z,7.10
2023-04-30T04:39:18.397Z,6.90
2023-04-30T04:41:55.236Z,5.53
2023-04-30T04:44:29.873Z,6.27
2023-04-30T04:47:04.716Z,6.27
2023-04-30T04:49:39.245Z,7.03
2023-04-30T04:52:14.242Z,6.77
2023-04-30T04:54:48.409Z,6.53
2023-04-30T04:57:22.350Z,6.03
2023-04-30T04:59:57.473Z,6.37
2023-04-30T05:02:32.088Z,6.67
2023-04-30T05:05:08.256Z,5.33
2023-04-30T05:07:44.296Z,5.63
2023-04-30T05:10:18.069Z,8.53
2023-04-30T05:12:53.120Z,6.17
2023-04-30T05:15:28.497Z,5.80
2023-04-30T05:18:03.039Z,7.03
2023-04-30T05:20:37.096Z,7.23
2023-04-30T05:23:12.671Z,6.03
2023-04-30T05:25:47.299Z,6.73
2023-04-30T05:28:22.831Z,7.07
2023-04-30T05:30:56.487Z,7.33
2023-04-30T05:33:30.839Z,6.87
2023-04-30T05:36:06.461Z,7.63
2023-04-30T05:38:41.986Z,7.73
2023-04-30T05:41:16.374Z,7.10
2023-04-30T05:43:50.882Z,7.07
2023-04-30T05:46:25.183Z,7.37
2023-04-30T05:48:59.494Z,7.20
2023-04-30T05:51:35.594Z,8.93
2023-04-30T05:54:11.234Z,7.37
2023-04-30T05:56:45.195Z,9.07
2023-04-30T05:59:21.308Z,9.90
2023-04-30T06:01:55.822Z,9.00
2023-04-30T06:04:31.037Z,7.87
2023-04-30T06:07:05.054Z,7.57
2023-04-30T06:09:40.709Z,7.27
2023-04-30T06:12:15.947Z,7.43
2023-04-30T06:14:50.489Z,7.97
2023-04-30T06:17:24.744Z,7.63
2023-04-30T06:20:02.825Z,7.33
2023-04-30T06:22:37.249Z,7.37
2023-04-30T06:25:16.362Z,7.43
2023-04-30T06:27:52.041Z,7.27
2023-04-30T06:30:25.938Z,8.60
2023-04-30T06:33:00.284Z,8.33
2023-04-30T06:35:34.422Z,7.17
2023-04-30T06:38:08.640Z,7.30
2023-04-30T06:40:45.078Z,8.57
2023-04-30T06:43:20.559Z,7.40
2023-04-30T06:45:56.055Z,6.77
2023-04-30T06:48:31.346Z,7.73
2023-04-30T06:51:05.912Z,6.47
2023-04-30T06:53:40.548Z,7.33
2023-04-30T06:56:16.758Z,6.47
2023-04-30T06:58:51.750Z,7.37
2023-04-30T07:01:25.954Z,7.33
2023-04-30T07:04:01.496Z,7.77
2023-04-30T07:06:36.466Z,6.20
2023-04-30T07:09:10.501Z,9.33
2023-04-30T07:11:46.888Z,6.80
2023-04-30T07:14:23.829Z,6.90
2023-04-30T07:16:58.846Z,7.17
2023-04-30T07:19:32.979Z,7.30
2023-04-30T07:22:07.194Z,7.10
2023-04-30T07:24:42.686Z,6.07
2023-04-30T07:27:18.181Z,6.10
2023-04-30T07:29:53.778Z,6.37
2023-04-30T07:32:27.985Z,6.93
2023-04-30T07:35:02.843Z,7.30
2023-04-30T07:37:37.620Z,5.10
2023-04-30T07:40:21.998Z,6.27
2023-04-30T07:43:06.829Z,8.10
2023-04-30T07:45:41.073Z,6.50
2023-04-30T07:48:15.805Z,6.37
2023-04-30T07:50:52.137Z,6.57
2023-04-30T07:53:28.126Z,5.53
2023-04-30T07:56:02.013Z,7.43
2023-04-30T07:58:38.049Z,5.67
2023-04-30T08:01:11.871Z,6.77
2023-04-30T08:03:45.959Z,6.23
2023-04-30T08:06:20.102Z,6.47
2023-04-30T08:08:53.995Z,5.00
2023-04-30T08:11:29.703Z,5.80
2023-04-30T08:14:07.256Z,4.83
2023-04-30T08:16:44.138Z,5.00
2023-04-30T08:19:19.112Z,5.50
2023-04-30T08:21:53.289Z,5.00
2023-04-30T08:24:28.583Z,5.87
2023-04-30T08:27:04.209Z,6.13
2023-04-30T08:29:39.865Z,4.87
2023-04-30T08:32:16.135Z,5.60
2023-04-30T08:34:51.869Z,4.77
2023-04-30T08:37:26.057Z,5.27
2023-04-30T08:40:00.529Z,5.60
2023-04-30T08:42:45.306Z,5.43
2023-04-30T08:45:23.857Z,4.60
2023-04-30T08:48:00.902Z,5.67
2023-04-30T08:50:35.151Z,4.20
2023-04-30T08:53:13.902Z,5.07
2023-04-30T08:55:50.687Z,5.20
2023-04-30T08:58:24.983Z,5.60
2023-04-30T09:01:03.598Z,4.93
2023-04-30T09:03:38.814Z,4.37
2023-04-30T09:06:18.783Z,4.57
2023-04-30T09:08:54.907Z,4.47
2023-04-30T09:11:31.415Z,6.07
2023-04-30T09:14:05.958Z,4.40
2023-04-30T09:16:53.731Z,5.00
2023-04-30T09:19:31.373Z,4.83
2023-04-30T09:22:26.090Z,4.10
2023-04-30T09:25:01.170Z,4.40
2023-04-30T09:27:35.697Z,4.10
2023-04-30T09:30:34.915Z,4.77
2023-04-30T09:33:12.278Z,4.27
2023-04-30T09:35:46.960Z,4.97
2023-04-30T09:38:31.680Z,5.13
2023-04-30T09:41:11.700Z,4.67
2023-04-30T09:43:51.984Z,3.93
2023-04-30T09:46:33.980Z,4.53
2023-04-30T09:49:09.790Z,4.43
2023-04-30T09:51:57.724Z,4.97
2023-04-30T09:54:33.925Z,4.03
2023-04-30T09:57:14.660Z,3.60
2023-04-30T09:59:50.376Z,4.50
2023-04-30T10:02:28.052Z,3.20
2023-04-30T10:05:07.101Z,3.57
2023-04-30T10:07:42.652Z,4.20
2023-04-30T10:10:19.548Z,3.93
2023-04-30T10:12:58.293Z,3.33
2023-04-30T10:15:39.483Z,3.33
2023-04-30T10:18:21.574Z,4.47
2023-04-30T10:20:58.962Z,4.33
2023-04-30T10:23:33.283Z,3.00
2023-04-30T10:26:07.111Z,3.40
2023-04-30T10:28:42.658Z,3.53
2023-04-30T10:31:19.579Z,2.47
2023-04-30T10:34:08.493Z,3.80
2023-04-30T10:36:51.336Z,3.30
2023-04-30T10:39:28.970Z,3.20
2023-04-30T10:42:05.620Z,2.67
2023-04-30T10:44:40.604Z,3.30
2023-04-30T10:47:15.772Z,3.60
2023-04-30T10:49:51.591Z,2.65
2023-04-30T10:52:31.723Z,2.40
2023-04-30T10:55:08.726Z,3.43
2023-04-30T10:57:44.355Z,2.00
2023-04-30T11:00:26.378Z,2.10
2023-04-30T11:03:05.934Z,2.80
2023-04-30T11:05:41.591Z,3.07
2023-04-30T11:08:17.969Z,2.63
2023-04-30T11:11:02.108Z,2.00
2023-04-30T11:13:47.414Z,1.65
2023-04-30T11:16:29.090Z,2.38
2023-04-30T11:19:11.335Z,2.97
2023-04-30T11:22:24.437Z,2.30
2023-04-30T11:25:15.116Z,2.13
2023-04-30T11:27:49.337Z,1.77
2023-04-30T11:30:25.246Z,3.28
2023-04-30T11:33:03.214Z,1.65
2023-04-30T11:35:38.159Z,2.40
2023-04-30T11:38:15.879Z,2.17
2023-04-30T11:40:54.627Z,2.50
2023-04-30T11:43:31.520Z,2.42
2023-04-30T11:46:09.301Z,1.95
2023-04-30T11:48:46.655Z,1.83
2023-04-30T11:51:24.126Z,2.13
2023-04-30T11:53:58.410Z,1.90
2023-04-30T11:56:34.049Z,1.83
2023-04-30T11:59:13.410Z,1.52
2023-04-30T12:01:48.977Z,1.50
2023-04-30T12:04:22.771Z,2.50
2023-04-30T12:06:57.195Z,1.92
2023-04-30T12:09:31.571Z,0.80
2023-04-30T12:12:07.108Z,1.17
2023-04-30T12:14:43.874Z,1.92
2023-04-30T12:17:34.458Z,1.42
2023-04-30T12:20:10.335Z,1.77
2023-04-30T12:22:46.069Z,1.23
2023-04-30T12:25:24.960Z,0.93
2023-04-30T12:28:01.588Z,0.95
2023-04-30T12:30:35.540Z,1.45
2023-04-30T12:33:14.895Z,1.13
2023-04-30T12:35:49.251Z,0.60
2023-04-30T12:38:23.600Z,0.60
2023-04-30T12:40:58.697Z,1.35
2023-04-30T12:43:36.456Z,2.72
2023-04-30T12:46:10.573Z,1.80
2023-04-30T12:48:47.672Z,1.50
2023-04-30T12:51:22.844Z,2.42
2023-04-30T12:53:57.266Z,1.52
2023-04-30T12:56:32.039Z,1.10
2023-04-30T12:59:18.111Z,1.08
2023-04-30T13:01:52.416Z,0.77
2023-04-30T13:04:26.889Z,1.60
2023-04-30T13:07:00.666Z,1.30
2023-04-30T13:09:36.586Z,2.30
2023-04-30T13:12:12.361Z,1.77
2023-04-30T13:14:47.985Z,1.98
2023-04-30T13:17:22.823Z,1.45
2023-04-30T13:19:57.726Z,1.65
2023-04-30T13:22:33.833Z,1.27
2023-04-30T13:25:10.550Z,1.52
2023-04-30T13:27:44.935Z,0.98
2023-04-30T13:30:21.155Z,0.73
2023-04-30T13:32:56.727Z,0.93
2023-04-30T13:35:31.382Z,1.02
2023-04-30T13:38:10.174Z,1.55
2023-04-30T13:40:44.201Z,1.25
2023-04-30T13:43:19.021Z,2.05
2023-04-30T13:45:54.467Z,2.00
2023-04-30T13:48:28.030Z,0.80
2023-04-30T13:51:03.888Z,1.35
2023-04-30T13:53:38.171Z,2.92
2023-04-30T13:56:13.182Z,1.40
2023-04-30T13:58:47.972Z,2.03
2023-04-30T14:01:23.214Z,0.80
2023-04-30T14:03:58.599Z,1.30
2023-04-30T14:06:33.287Z,1.73
2023-04-30T14:09:08.435Z,1.10
2023-04-30T14:11:43.804Z,2.25
2023-04-30T14:14:17.674Z,1.55
2023-04-30T14:16:54.148Z,2.53
2023-04-30T14:19:28.313Z,2.08
2023-04-30T14:22:03.883Z,0.70
2023-04-30T14:24:37.719Z,1.23
2023-04-30T14:27:12.201Z,1.55
2023-04-30T14:29:46.849Z,1.30
2023-04-30T14:32:27.099Z,1.80
2023-04-30T14:35:01.262Z,1.63
2023-04-30T14:37:35.837Z,1.30
2023-04-30T14:40:11.770Z,1.85
2023-04-30T14:42:48.199Z,2.15
2023-04-30T14:45:22.615Z,2.47
2023-04-30T14:48:04.003Z,1.20
2023-04-30T14:50:38.998Z,1.60
2023-04-30T14:53:14.875Z,0.77
2023-04-30T14:55:48.700Z,0.60
2023-04-30T14:58:23.295Z,1.63
2023-04-30T15:00:57.103Z,0.65
2023-04-30T15:03:32.757Z,2.20
2023-04-30T15:06:07.051Z,1.33
2023-04-30T15:08:42.364Z,0.80
2023-04-30T15:11:17.065Z,0.88
2023-04-30T15:13:50.946Z,1.33
2023-04-30T15:16:27.499Z,0.60
2023-04-30T15:19:05.478Z,0.80
2023-04-30T15:21:39.295Z,0.85
2023-04-30T15:24:13.921Z,0.98
2023-04-30T15:26:48.361Z,0.98
2023-04-30T15:29:22.166Z,0.77
2023-04-30T15:31:56.776Z,0.95
2023-04-30T15:34:32.963Z,1.92
2023-04-30T15:37:07.330Z,1.92
2023-04-30T15:39:41.343Z,1.55
2023-04-30T15:42:17.843Z,2.22
2023-04-30T15:44:52.419Z,2.25
2023-04-30T15:47:28.209Z,2.03
2023-04-30T15:50:07.336Z,1.60
2023-04-30T15:52:41.246Z,2.55
2023-04-30T15:55:15.971Z,1.20
2023-04-30T15:57:49.842Z,2.17
2023-04-30T16:00:27.921Z,0.70
2023-04-30T16:03:03.002Z,0.80
2023-04-30T16:05:40.875Z,1.15
2023-04-30T16:08:16.477Z,0.82
2023-04-30T16:10:52.218Z,1.42
2023-04-30T16:13:27.800Z,2.13
2023-04-30T16:16:04.186Z,1.05
2023-04-30T16:18:38.772Z,0.70
2023-04-30T16:21:15.830Z,1.13
2023-04-30T16:23:53.034Z,1.48
2023-04-30T16:26:29.216Z,1.52
2023-04-30T16:29:06.576Z,1.83
2023-04-30T16:31:40.687Z,1.88
2023-04-30T16:34:15.562Z,1.25
2023-04-30T16:36:52.822Z,1.63
2023-04-30T16:39:27.128Z,1.20
2023-04-30T16:42:02.494Z,1.23
2023-04-30T16:44:37.324Z,1.45
2023-04-30T16:47:11.380Z,1.73
2023-04-30T16:49:46.149Z,1.45
2023-04-30T16:52:23.020Z,2.40
2023-04-30T16:54:57.213Z,3.40
2023-04-30T16:57:33.195Z,2.67
2023-04-30T17:00:14.886Z,0.75
2023-04-30T17:02:51.414Z,0.77
2023-04-30T17:05:26.690Z,0.67
2023-04-30T17:08:02.344Z,0.88
2023-04-30T17:10:36.482Z,1.93
2023-04-30T17:13:11.351Z,1.20
2023-04-30T17:15:48.266Z,1.43
2023-04-30T17:18:22.283Z,1.00
2023-04-30T17:20:56.287Z,2.23
2023-04-30T17:23:33.454Z,2.83
2023-04-30T17:26:07.294Z,2.63
2023-04-30T17:28:42.561Z,2.33
2023-04-30T17:31:17.248Z,1.50
2023-04-30T17:33:51.558Z,2.10
2023-04-30T17:36:52.189Z,1.40
2023-04-30T17:39:29.238Z,0.70
2023-04-30T17:42:03.624Z,1.00
2023-04-30T17:44:39.118Z,1.03
2023-04-30T17:47:16.354Z,1.07
2023-04-30T17:49:51.353Z,2.90
2023-04-30T17:52:26.398Z,1.83
2023-04-30T17:55:03.594Z,2.83
2023-04-30T17:57:38.098Z,2.23
2023-04-30T18:00:14.381Z,1.33
2023-04-30T18:02:48.700Z,1.33
2023-04-30T18:05:23.496Z,1.27
2023-04-30T18:07:58.760Z,1.50
2023-04-30T18:10:36.006Z,0.90
2023-04-30T18:13:12.436Z,0.70
2023-04-30T18:15:46.429Z,1.97
2023-04-30T18:18:27.754Z,1.97
2023-04-30T18:21:01.990Z,1.70
2023-04-30T18:23:37.091Z,1.23
2023-04-30T18:26:13.875Z,1.60
2023-04-30T18:28:48.646Z,1.87
2023-04-30T18:31:22.907Z,1.50
2023-04-30T18:33:56.678Z,2.57
2023-04-30T18:36:31.605Z,2.67
2023-04-30T18:39:06.049Z,1.87
2023-04-30T18:41:41.826Z,2.90
2023-04-30T18:44:16.630Z,2.40
2023-04-30T18:46:50.382Z,1.60
2023-04-30T18:49:24.573Z,1.93
2023-04-30T18:52:00.610Z,2.10
2023-04-30T18:54:35.634Z,2.03
2023-04-30T18:57:14.934Z,1.93
2023-04-30T18:59:49.767Z,2.23
2023-04-30T19:02:23.696Z,1.90
2023-04-30T19:04:57.949Z,5.20
2023-04-30T19:07:32.217Z,2.50
2023-04-30T19:10:07.272Z,4.00
2023-04-30T19:12:44.328Z,2.53
2023-04-30T19:15:18.779Z,1.70
2023-04-30T19:17:55.162Z,3.27
2023-04-30T19:20:30.365Z,2.50
2023-04-30T19:23:04.177Z,2.20
2023-04-30T19:25:40.338Z,3.07
2023-04-30T19:28:17.715Z,4.40
2023-04-30T19:30:54.372Z,2.97
2023-04-30T19:33:31.283Z,3.90
2023-04-30T19:36:05.818Z,3.03
2023-04-30T19:38:39.938Z,3.97
2023-04-30T19:41:13.937Z,3.17
2023-04-30T19:43:49.836Z,2.93
2023-04-30T19:46:26.413Z,2.47
2023-04-30T19:49:02.033Z,2.00
2023-04-30T19:51:36.400Z,2.93
2023-04-30T19:54:15.120Z,3.60
2023-04-30T19:56:49.136Z,2.40
2023-04-30T19:59:26.770Z,3.63
2023-04-30T20:02:01.411Z,2.87
2023-04-30T20:04:35.758Z,3.87
2023-04-30T20:07:09.563Z,4.37
2023-04-30T20:09:45.764Z,2.47
2023-04-30T20:12:19.751Z,3.67
2023-04-30T20:14:54.984Z,4.33
2023-04-30T20:17:29.964Z,5.60
2023-04-30T20:20:05.781Z,4.77
2023-04-30T20:22:39.969Z,2.47
2023-04-30T20:25:14.280Z,4.17
2023-04-30T20:27:48.205Z,2.93
2023-04-30T20:30:25.209Z,2.87
2023-04-30T20:32:59.369Z,2.57
2023-04-30T20:35:34.266Z,2.80
2023-04-30T20:38:08.275Z,3.43
2023-04-30T20:40:44.951Z,3.83
2023-04-30T20:43:19.545Z,2.17
2023-04-30T20:45:59.267Z,2.93
2023-04-30T20:48:33.552Z,3.17
2023-04-30T20:51:08.115Z,3.30
2023-04-30T20:53:42.254Z,3.57
2023-04-30T20:56:18.807Z,2.60
2023-04-30T20:58:54.858Z,3.00
2023-04-30T21:01:30.447Z,2.07
2023-04-30T21:04:05.150Z,2.70
2023-04-30T21:06:39.444Z,2.20
2023-04-30T21:09:13.947Z,2.13
2023-04-30T21:11:49.909Z,3.13
2023-04-30T21:14:23.947Z,3.10
2023-04-30T21:17:00.293Z,1.93
2023-04-30T21:19:35.776Z,2.30
2023-04-30T21:22:09.470Z,2.13
2023-04-30T21:24:44.697Z,3.23
2023-04-30T21:27:18.269Z,4.27
2023-04-30T21:29:52.729Z,3.53
2023-04-30T21:32:28.941Z,2.70
2023-04-30T21:35:03.092Z,2.57
2023-04-30T21:37:37.106Z,4.43
2023-04-30T21:40:13.545Z,2.73
2023-04-30T21:42:48.833Z,3.87
2023-04-30T21:45:23.154Z,2.20
2023-04-30T21:47:58.499Z,6.40
2023-04-30T21:50:35.490Z,3.80
2023-04-30T21:53:11.168Z,3.00
2023-04-30T21:55:45.020Z,3.70
2023-04-30T21:58:19.038Z,3.20
2023-04-30T22:01:01.940Z,2.43
2023-04-30T22:03:39.904Z,3.20
2023-04-30T22:06:14.461Z,4.90
2023-04-30T22:08:49.176Z,2.93
2023-04-30T22:11:25.577Z,5.17
2023-04-30T22:14:00.206Z,2.97
2023-04-30T22:16:34.310Z,3.83
2023-04-30T22:19:09.769Z,3.47
2023-04-30T22:21:43.674Z,4.33
2023-04-30T22:24:18.048Z,3.97
2023-04-30T22:26:54.241Z,2.60
2023-04-30T22:29:28.446Z,4.67
2023-04-30T22:32:02.558Z,5.17
2023-04-30T22:34:42.338Z,3.60
2023-04-30T22:37:16.707Z,3.67
2023-04-30T22:39:51.172Z,2.53
2023-04-30T22:42:25.031Z,3.67
2023-04-30T22:44:59.775Z,2.63
2023-04-30T22:47:34.335Z,2.23
2023-04-30T22:50:12.823Z,4.30
2023-04-30T22:52:46.882Z,3.73
2023-04-30T22:55:22.842Z,3.20
2023-04-30T22:57:59.801Z,4.30
2023-04-30T23:00:34.441Z,3.60
2023-04-30T23:03:08.573Z,3.83
2023-04-30T23:05:45.058Z,4.17
2023-04-30T23:08:19.004Z,3.07
2023-04-30T23:10:55.832Z,4.70
2023-04-30T23:13:30.726Z,4.33
2023-04-30T23:16:06.017Z,3.40
2023-04-30T23:18:40.114Z,5.53
2023-04-30T23:21:17.031Z,4.67
2023-04-30T23:23:51.163Z,3.30
2023-04-30T23:26:28.962Z,4.40
2023-04-30T23:29:05.268Z,3.43
2023-04-30T23:31:38.953Z,3.73
2023-04-30T23:34:13.111Z,3.17
2023-04-30T23:36:48.655Z,3.50
2023-04-30T23:39:24.772Z,4.50
2023-04-30T23:42:02.614Z,3.47
2023-04-30T23:44:36.167Z,3.67
2023-04-30T23:47:12.778Z,3.30
2023-04-30T23:49:46.561Z,3.13
2023-04-30T23:52:22.914Z,3.37
2023-04-30T23:54:57.604Z,3.17
2023-04-30T23:57:33.278Z,3.00
